Time;durP1;ratioP1;P1;durP2;ratioP2;P2;SDS_P1;SDS_P2;PMS_P1;PMS_P2;Temp;Humidity;BMP_temperature;BMP_pressure;BME280_temperature;BME280_humidity;BME280_pressure;Samples;Min_cycle;Max_cycle;Signal;HPM_P1;HPM_P2
2022/03/30 00:02:09;;;;;;;;;;;;;;;;;;5051792;28;19912;-72
2022/03/30 00:04:36;;;;;;;;;;;;;;;;;;5053106;28;19931;-73
2022/03/30 00:07:02;;;;;;;;;;;;;;;;;;5051315;28;19928;-72
2022/03/30 00:09:28;;;;;;;;;;;;;;;;;;5053122;28;20349;-72
2022/03/30 00:11:56;;;;;;;;;;;;;;;;;;5052621;28;19916;-72
2022/03/30 00:14:21;;;;;;;;;;;;;;;;;;5051536;28;19913;-71
2022/03/30 00:16:48;;;;;;;;;;;;;;;;;;5052554;28;19920;-71
2022/03/30 00:19:14;;;;;;;;;;;;;;;;;;5051418;28;19917;-71
2022/03/30 00:21:40;;;;;;;;;;;;;;;;;;5052632;28;19935;-72
2022/03/30 00:24:06;;;;;;;;;;;;;;;;;;5052858;28;19924;-71
2022/03/30 00:26:32;;;;;;;;;;;;;;;;;;5052070;28;19913;-70
2022/03/30 00:28:58;;;;;;;;;;;;;;;;;;5052650;28;19943;-72
2022/03/30 00:31:24;;;;;;;;;;;;;;;;;;5052194;28;19921;-72
2022/03/30 00:33:51;;;;;;;;;;;;;;;;;;5052446;28;19960;-70
2022/03/30 00:36:17;;;;;;;;;;;;;;;;;;5050743;28;19916;-71
2022/03/30 00:38:43;;;;;;;;;;;;;;;;;;5052315;28;19912;-70
2022/03/30 00:41:08;;;;;;;;;;;;;;;;;;5050655;28;19921;-71
2022/03/30 00:43:34;;;;;;;;;;;;;;;;;;5052184;28;19913;-71
2022/03/30 00:46:00;;;;;;;;;;;;;;;;;;5052259;28;19925;-72
2022/03/30 00:48:26;;;;;;;;;;;;;;;;;;5052134;28;19912;-71
2022/03/30 00:50:52;;;;;;;;;;;;;;;;;;5052100;28;19970;-71
2022/03/30 00:53:18;;;;;;;;;;;;;;;;;;5050491;28;19916;-71
2022/03/30 00:55:44;;;;;;;;;;;;;;;;;;5051851;28;19913;-71
2022/03/30 00:58:10;;;;;;;;;;;;;;;;;;5051810;28;20371;-72
2022/03/30 01:00:36;;;;;;;;;;;;;;;;;;5050495;28;19974;-70
2022/03/30 01:03:02;;;;;;;;;;;;;;;;;;5051725;28;19995;-71
2022/03/30 01:05:28;;;;;;;;;;;;;;;;;;5050261;28;19925;-70
2022/03/30 01:07:54;;;;;;;;;;;;;;;;;;5051825;28;19948;-70
2022/03/30 01:10:20;;;;;;;;;;;;;;;;;;5050155;28;20381;-71
2022/03/30 01:12:46;;;;;;;;;;;;;;;;;;5050293;28;19908;-71
2022/03/30 01:15:12;;;;;;;;;;;;;;;;;;5051772;28;20292;-72
2022/03/30 01:17:38;;;;;;;;;;;;;;;;;;5050315;28;19913;-71
2022/03/30 01:20:04;;;;;;;;;;;;;;;;;;5052101;28;19925;-71
2022/03/30 01:22:30;;;;;;;;;;;;;;;;;;5051482;28;19917;-71
2022/03/30 01:24:56;;;;;;;;;;;;;;;;;;5051940;28;19912;-71
2022/03/30 01:27:22;;;;;;;;;;;;;;;;;;5049940;28;19913;-71
2022/03/30 01:32:34;;;;;;;;;;;;;;;;;;5051381;28;19920;-72
2022/03/30 01:35:00;;;;;;;;;;;;;;;;;;5051774;28;20320;-73
2022/03/30 01:37:28;;;;;;;;;;;;;;;;;;5049374;28;19913;-72
2022/03/30 01:39:54;;;;;;;;;;;;;;;;;;5051490;28;20442;-71
2022/03/30 01:42:19;;;;;;;;;;;;;;;;;;5051102;28;19913;-72
2022/03/30 01:44:45;;;;;;;;;;;;;;;;;;5051615;28;19913;-72
2022/03/30 01:47:12;;;;;;;;;;;;;;;;;;5051058;28;19932;-71
2022/03/30 01:49:38;;;;;;;;;;;;;;;;;;5051567;28;19913;-71
2022/03/30 01:52:04;;;;;;;;;;;;;;;;;;5050981;28;19920;-72
2022/03/30 01:54:30;;;;;;;;;;;;;;;;;;5051561;28;19913;-72
2022/03/30 01:56:56;;;;;;;;;;;;;;;;;;5051510;28;19913;-71
2022/03/30 01:59:22;;;;;;;;;;;;;;;;;;5051501;28;19917;-71
2022/03/30 02:01:48;;;;;;;;;;;;;;;;;;5051078;28;19913;-71
2022/03/30 02:04:14;;;;;;;;;;;;;;;;;;5051325;28;19962;-71
2022/03/30 02:06:40;;;;;;;;;;;;;;;;;;5050932;28;20354;-71
2022/03/30 02:09:05;;;;;;;;;;;;;;;;;;5051036;28;19913;-70
2022/03/30 02:11:31;;;;;;;;;;;;;;;;;;5051243;28;19928;-70
2022/03/30 02:13:57;;;;;;;;;;;;;;;;;;5051319;28;20003;-70
2022/03/30 02:16:23;;;;;;;;;;;;;;;;;;5049788;28;19916;-71
2022/03/30 02:18:49;;;;;;;;;;;;;;;;;;5049637;28;19912;-71
2022/03/30 02:21:15;;;;;;;;;;;;;;;;;;5050934;28;19916;-71
2022/03/30 02:23:41;;;;;;;;;;;;;;;;;;5051102;28;20284;-72
2022/03/30 02:26:07;;;;;;;;;;;;;;;;;;5050863;28;19958;-70
2022/03/30 02:28:33;;;;;;;;;;;;;;;;;;5050934;28;20370;-71
2022/03/30 02:30:59;;;;;;;;;;;;;;;;;;5050877;28;19942;-72
2022/03/30 02:33:25;;;;;;;;;;;;;;;;;;5050689;28;19913;-71
2022/03/30 02:35:51;;;;;;;;;;;;;;;;;;5049447;28;19913;-71
2022/03/30 02:38:17;;;;;;;;;;;;;;;;;;5050533;28;20383;-71
2022/03/30 02:40:43;;;;;;;;;;;;;;;;;;5050697;28;20242;-70
2022/03/30 02:43:10;;;;;;;;;;;;;;;;;;5050601;28;20004;-71
2022/03/30 02:45:36;;;;;;;;;;;;;;;;;;5050642;28;20391;-71
2022/03/30 02:48:21;;;;;;;;;;;;;;;;;;5050643;28;19935;-71
2022/03/30 02:50:47;;;;;;;;;;;;;;;;;;5053691;28;20407;-71
2022/03/30 02:53:13;;;;;;;;;;;;;;;;;;5053907;28;19921;-72
2022/03/30 02:55:39;;;;;;;;;;;;;;;;;;5052937;28;19962;-71
2022/03/30 02:58:05;;;;;;;;;;;;;;;;;;5054221;28;19909;-72
2022/03/30 03:00:31;;;;;;;;;;;;;;;;;;5054215;28;20361;-73
2022/03/30 03:02:57;;;;;;;;;;;;;;;;;;5054177;28;19962;-71
2022/03/30 03:05:23;;;;;;;;;;;;;;;;;;5053915;28;19928;-71
2022/03/30 03:07:50;;;;;;;;;;;;;;;;;;5054129;28;19916;-71
2022/03/30 03:10:15;;;;;;;;;;;;;;;;;;5053744;28;19917;-72
2022/03/30 03:12:41;;;;;;;;;;;;;;;;;;5053746;28;19962;-71
2022/03/30 03:15:07;;;;;;;;;;;;;;;;;;5054197;28;19913;-71
2022/03/30 03:17:33;;;;;;;;;;;;;;;;;;5052403;28;20006;-71
2022/03/30 03:19:59;;;;;;;;;;;;;;;;;;5054072;28;19912;-73
2022/03/30 03:22:25;;;;;;;;;;;;;;;;;;5052346;28;19916;-70
2022/03/30 03:24:51;;;;;;;;;;;;;;;;;;5054131;28;19939;-72
2022/03/30 03:27:17;;;;;;;;;;;;;;;;;;5053684;28;20521;-72
2022/03/30 03:29:44;;;;;;;;;;;;;;;;;;5053993;28;20265;-72
2022/03/30 03:32:10;;;;;;;;;;;;;;;;;;5052160;28;20347;-72
2022/03/30 03:34:36;;;;;;;;;;;;;;;;;;5053193;28;19967;-72
2022/03/30 03:37:02;;;;;;;;;;;;;;;;;;5052006;28;19913;-72
2022/03/30 03:39:27;;;;;;;;;;;;;;;;;;5053725;28;20382;-71
2022/03/30 03:41:53;;;;;;;;;;;;;;;;;;5053331;28;19917;-71
2022/03/30 03:44:19;;;;;;;;;;;;;;;;;;5051893;28;19913;-71
2022/03/30 03:46:45;;;;;;;;;;;;;;;;;;5053176;28;19956;-70
2022/03/30 03:49:11;;;;;;;;;;;;;;;;;;5053419;28;19919;-72
2022/03/30 03:51:37;;;;;;;;;;;;;;;;;;5053012;28;20291;-70
2022/03/30 03:54:03;;;;;;;;;;;;;;;;;;5053189;28;19920;-72
2022/03/30 03:56:29;;;;;;;;;;;;;;;;;;5051638;28;19913;-71
2022/03/30 03:58:55;;;;;;;;;;;;;;;;;;5052985;28;19913;-73
2022/03/30 04:01:21;;;;;;;;;;;;;;;;;;5052335;28;20361;-72
2022/03/30 04:03:47;;;;;;;;;;;;;;;;;;5052852;28;19917;-71
2022/03/30 04:06:13;;;;;;;;;;;;;;;;;;5051414;28;19948;-71
2022/03/30 04:08:39;;;;;;;;;;;;;;;;;;5053079;28;19913;-71
2022/03/30 04:11:05;;;;;;;;;;;;;;;;;;5052860;28;20012;-71
2022/03/30 04:13:31;;;;;;;;;;;;;;;;;;5052817;28;19919;-71
2022/03/30 04:15:57;;;;;;;;;;;;;;;;;;5052763;28;20423;-71
2022/03/30 04:18:23;;;;;;;;;;;;;;;;;;5051281;28;19987;-72
2022/03/30 04:20:49;;;;;;;;;;;;;;;;;;5052659;28;19967;-72
2022/03/30 04:23:15;;;;;;;;;;;;;;;;;;5052641;28;20348;-72
2022/03/30 04:25:41;;;;;;;;;;;;;;;;;;5052431;28;19920;-72
2022/03/30 04:28:07;;;;;;;;;;;;;;;;;;5052457;28;19913;-71
2022/03/30 04:30:33;;;;;;;;;;;;;;;;;;5051126;28;19916;-71
2022/03/30 04:32:59;;;;;;;;;;;;;;;;;;5050865;28;19917;-71
2022/03/30 04:35:25;;;;;;;;;;;;;;;;;;5052246;28;19936;-72
2022/03/30 04:37:51;;;;;;;;;;;;;;;;;;5052042;28;19908;-72
2022/03/30 04:40:17;;;;;;;;;;;;;;;;;;5052152;28;19919;-71
2022/03/30 04:42:43;;;;;;;;;;;;;;;;;;5050761;28;19909;-73
2022/03/30 04:45:09;;;;;;;;;;;;;;;;;;5050936;28;20004;-71
2022/03/30 04:47:35;;;;;;;;;;;;;;;;;;5052062;28;20308;-72
2022/03/30 04:50:00;;;;;;;;;;;;;;;;;;5050314;28;19917;-72
2022/03/30 04:52:26;;;;;;;;;;;;;;;;;;5051892;28;19913;-72
2022/03/30 04:54:53;;;;;;;;;;;;;;;;;;5052341;28;19958;-71
2022/03/30 04:57:20;;;;;;;;;;;;;;;;;;5050479;28;19959;-72
2022/03/30 04:59:46;;;;;;;;;;;;;;;;;;5052169;28;19912;-72
2022/03/30 05:02:12;;;;;;;;;;;;;;;;;;5052013;28;19913;-72
2022/03/30 05:04:38;;;;;;;;;;;;;;;;;;5050418;28;19913;-73
2022/03/30 05:07:04;;;;;;;;;;;;;;;;;;5051427;28;19929;-71
2022/03/30 05:09:30;;;;;;;;;;;;;;;;;;5051852;28;19920;-72
2022/03/30 05:11:56;;;;;;;;;;;;;;;;;;5051714;28;20416;-71
2022/03/30 05:14:22;;;;;;;;;;;;;;;;;;5051099;28;19916;-72
2022/03/30 05:16:48;;;;;;;;;;;;;;;;;;5051749;28;19959;-72
2022/03/30 05:19:14;;;;;;;;;;;;;;;;;;5051787;28;19959;-70
2022/03/30 05:21:40;;;;;;;;;;;;;;;;;;5051431;28;19917;-73
2022/03/30 05:24:06;;;;;;;;;;;;;;;;;;5051559;28;19919;-70
2022/03/30 05:26:32;;;;;;;;;;;;;;;;;;5049931;28;20015;-72
2022/03/30 05:28:58;;;;;;;;;;;;;;;;;;5051742;28;19913;-72
2022/03/30 05:31:24;;;;;;;;;;;;;;;;;;5051263;28;20019;-72
2022/03/30 05:33:50;;;;;;;;;;;;;;;;;;5050107;28;19970;-72
2022/03/30 05:36:15;;;;;;;;;;;;;;;;;;5051309;28;20550;-72
2022/03/30 05:38:41;;;;;;;;;;;;;;;;;;5049971;28;19956;-72
2022/03/30 05:41:07;;;;;;;;;;;;;;;;;;5049814;28;20105;-72
2022/03/30 05:43:33;;;;;;;;;;;;;;;;;;5051375;28;19917;-72
2022/03/30 05:45:59;;;;;;;;;;;;;;;;;;5051303;28;19913;-71
2022/03/30 05:48:26;;;;;;;;;;;;;;;;;;5051296;28;19940;-70
2022/03/30 05:50:53;;;;;;;;;;;;;;;;;;5049867;28;20348;-72
2022/03/30 05:53:19;;;;;;;;;;;;;;;;;;5049828;28;19951;-72
2022/03/30 05:55:45;;;;;;;;;;;;;;;;;;5051041;28;19963;-72
2022/03/30 05:58:11;;;;;;;;;;;;;;;;;;5051793;28;19913;-71
2022/03/30 06:00:37;;;;;;;;;;;;;;;;;;5049750;28;19913;-70
2022/03/30 06:03:02;;;;;;;;;;;;;;;;;;5051124;28;20314;-72
2022/03/30 06:05:28;;;;;;;;;;;;;;;;;;5050994;28;20236;-71
2022/03/30 06:07:57;;;;;;;;;;;;;;;;;;5049637;28;19917;-72
2022/03/30 06:10:23;;;;;;;;;;;;;;;;;;5050959;28;20284;-72
2022/03/30 06:12:49;;;;;;;;;;;;;;;;;;5049971;28;19909;-72
2022/03/30 06:15:15;;;;;;;;;;;;;;;;;;5050854;28;19916;-71
2022/03/30 06:17:41;;;;;;;;;;;;;;;;;;5049559;28;19915;-71
2022/03/30 06:20:07;;;;;;;;;;;;;;;;;;5049797;28;19913;-71
2022/03/30 06:22:35;;;;;;;;;;;;;;;;;;5050823;28;19913;-71
2022/03/30 06:25:01;;;;;;;;;;;;;;;;;;5053454;28;19913;-72
2022/03/30 06:27:27;;;;;;;;;;;;;;;;;;5054691;28;19919;-72
2022/03/30 06:29:53;;;;;;;;;;;;;;;;;;5055142;28;20411;-72
2022/03/30 06:32:19;;;;;;;;;;;;;;;;;;5054369;28;19917;-72
2022/03/30 06:34:45;;;;;;;;;;;;;;;;;;5054900;28;20446;-71
2022/03/30 06:37:11;;;;;;;;;;;;;;;;;;5054459;28;19974;-71
2022/03/30 06:39:38;;;;;;;;;;;;;;;;;;5054829;28;19913;-71
2022/03/30 06:42:05;;;;;;;;;;;;;;;;;;5054324;28;19913;-72
2022/03/30 06:44:32;;;;;;;;;;;;;;;;;;5053084;28;19959;-72
2022/03/30 06:46:58;;;;;;;;;;;;;;;;;;5054253;28;20384;-72
2022/03/30 06:49:24;;;;;;;;;;;;;;;;;;5054595;28;20260;-71
2022/03/30 06:51:52;;;;;;;;;;;;;;;;;;5052689;28;19917;-72
2022/03/30 06:54:18;;;;;;;;;;;;;;;;;;5054331;28;19921;-71
2022/03/30 06:56:44;;;;;;;;;;;;;;;;;;5052715;28;19913;-71
2022/03/30 06:59:12;;;;;;;;;;;;;;;;;;5054328;28;20007;-71
2022/03/30 07:01:38;;;;;;;;;;;;;;;;;;5052518;28;19917;-71
2022/03/30 07:04:03;;;;;;;;;;;;;;;;;;5054169;28;19919;-71
2022/03/30 07:06:29;;;;;;;;;;;;;;;;;;5052364;28;19925;-70
2022/03/30 07:11:40;;;;;;;;;;;;;;;;;;5053773;28;20327;-72
2022/03/30 07:14:06;;;;;;;;;;;;;;;;;;5053977;28;19913;-72
2022/03/30 07:16:32;;;;;;;;;;;;;;;;;;5052272;28;20022;-72
2022/03/30 07:18:58;;;;;;;;;;;;;;;;;;5053853;28;20049;-72
2022/03/30 07:21:24;;;;;;;;;;;;;;;;;;5053634;28;19917;-72
2022/03/30 07:23:50;;;;;;;;;;;;;;;;;;5053479;28;19913;-72
2022/03/30 07:26:16;;;;;;;;;;;;;;;;;;5053644;28;19928;-72
2022/03/30 07:28:42;;;;;;;;;;;;;;;;;;5053540;28;19920;-72
2022/03/30 07:31:08;;;;;;;;;;;;;;;;;;5053401;28;20345;-72
2022/03/30 07:33:34;;;;;;;;;;;;;;;;;;5053403;28;19912;-72
2022/03/30 07:36:00;;;;;;;;;;;;;;;;;;5050924;28;19955;-72
2022/03/30 07:38:26;;;;;;;;;;;;;;;;;;5053038;28;20257;-72
2022/03/30 07:40:53;;;;;;;;;;;;;;;;;;5053276;28;19920;-72
2022/03/30 07:43:19;;;;;;;;;;;;;;;;;;5053235;28;19913;-71
2022/03/30 07:45:45;;;;;;;;;;;;;;;;;;5053381;28;20416;-72
2022/03/30 07:48:12;;;;;;;;;;;;;;;;;;5053186;28;19950;-72
2022/03/30 07:50:38;;;;;;;;;;;;;;;;;;5053428;28;19917;-72
2022/03/30 07:53:07;;;;;;;;;;;;;;;;;;5053466;28;20008;-72
2022/03/30 07:55:34;;;;;;;;;;;;;;;;;;5051762;28;19913;-71
2022/03/30 07:58:00;;;;;;;;;;;;;;;;;;5052856;28;20364;-71
2022/03/30 08:00:27;;;;;;;;;;;;;;;;;;5052925;28;19920;-72
2022/03/30 08:02:53;;;;;;;;;;;;;;;;;;5052611;28;19940;-71
2022/03/30 08:05:22;;;;;;;;;;;;;;;;;;5052735;28;20013;-73
2022/03/30 08:07:50;;;;;;;;;;;;;;;;;;5052600;28;19909;-72
2022/03/30 08:10:16;;;;;;;;;;;;;;;;;;5052663;28;19912;-72
2022/03/30 08:12:42;;;;;;;;;;;;;;;;;;5052563;28;20367;-72
2022/03/30 08:15:08;;;;;;;;;;;;;;;;;;5053038;28;20364;-72
2022/03/30 08:17:34;;;;;;;;;;;;;;;;;;5052490;28;20011;-72
2022/03/30 08:20:00;;;;;;;;;;;;;;;;;;5052988;28;20392;-72
2022/03/30 08:22:27;;;;;;;;;;;;;;;;;;5052446;28;19913;-72
2022/03/30 08:24:53;;;;;;;;;;;;;;;;;;5052761;28;19919;-72
2022/03/30 08:27:20;;;;;;;;;;;;;;;;;;5051015;28;20400;-71
2022/03/30 08:29:46;;;;;;;;;;;;;;;;;;5051299;28;19956;-72
2022/03/30 08:32:12;;;;;;;;;;;;;;;;;;5052389;28;19921;-74
2022/03/30 08:34:38;;;;;;;;;;;;;;;;;;5052081;28;20311;-72
2022/03/30 08:37:04;;;;;;;;;;;;;;;;;;5052192;28;19917;-72
2022/03/30 08:39:30;;;;;;;;;;;;;;;;;;5052449;28;19919;-71
2022/03/30 08:41:56;;;;;;;;;;;;;;;;;;5052259;28;19913;-71
2022/03/30 08:44:22;;;;;;;;;;;;;;;;;;5052255;28;20356;-71
2022/03/30 08:46:48;;;;;;;;;;;;;;;;;;5050466;28;19919;-71
2022/03/30 08:49:14;;;;;;;;;;;;;;;;;;5052216;28;19912;-72
2022/03/30 08:51:40;;;;;;;;;;;;;;;;;;5050527;28;19951;-71
2022/03/30 08:54:06;;;;;;;;;;;;;;;;;;5052199;28;19940;-72
2022/03/30 08:56:32;;;;;;;;;;;;;;;;;;5052088;28;19948;-72
2022/03/30 08:58:58;;;;;;;;;;;;;;;;;;5052185;28;19962;-71
2022/03/30 09:01:24;;;;;;;;;;;;;;;;;;5051831;28;20376;-71
2022/03/30 09:03:50;;;;;;;;;;;;;;;;;;5051528;28;19967;-72
2022/03/30 09:06:16;;;;;;;;;;;;;;;;;;5051387;28;19925;-72
2022/03/30 09:08:43;;;;;;;;;;;;;;;;;;5050233;28;19996;-71
2022/03/30 09:11:09;;;;;;;;;;;;;;;;;;5051859;28;19917;-71
2022/03/30 09:13:35;;;;;;;;;;;;;;;;;;5051632;28;19916;-72
2022/03/30 09:16:01;;;;;;;;;;;;;;;;;;5051697;28;19920;-71
2022/03/30 09:18:27;;;;;;;;;;;;;;;;;;5051411;28;19913;-71
2022/03/30 09:20:55;;;;;;;;;;;;;;;;;;5051569;28;19962;-71
2022/03/30 09:23:21;;;;;;;;;;;;;;;;;;5050142;28;19955;-72
2022/03/30 09:25:47;;;;;;;;;;;;;;;;;;5051580;28;19913;-72
2022/03/30 09:28:13;;;;;;;;;;;;;;;;;;5050175;28;19959;-73
2022/03/30 09:30:39;;;;;;;;;;;;;;;;;;5051480;28;19987;-72
2022/03/30 09:33:05;;;;;;;;;;;;;;;;;;5050047;28;19920;-72
2022/03/30 09:35:31;;;;;;;;;;;;;;;;;;5050060;28;19963;-72
2022/03/30 09:37:57;;;;;;;;;;;;;;;;;;5051289;28;20348;-71
2022/03/30 09:40:23;;;;;;;;;;;;;;;;;;5051438;28;19923;-72
2022/03/30 09:42:49;;;;;;;;;;;;;;;;;;5051174;28;19909;-73
2022/03/30 09:45:15;;;;;;;;;;;;;;;;;;5049836;28;19928;-72
2022/03/30 09:47:41;;;;;;;;;;;;;;;;;;5051316;28;19909;-72
2022/03/30 09:50:07;;;;;;;;;;;;;;;;;;5051442;28;20308;-72
2022/03/30 09:52:37;;;;;;;;;;;;;;;;;;5051233;28;20360;-71
2022/03/30 09:55:03;;;;;;;;;;;;;;;;;;5051551;28;19938;-71
2022/03/30 09:57:29;;;;;;;;;;;;;;;;;;5051176;28;19917;-70
2022/03/30 09:59:55;;;;;;;;;;;;;;;;;;5053550;28;20390;-72
2022/03/30 10:02:21;;;;;;;;;;;;;;;;;;5055199;28;19913;-72
2022/03/30 10:04:47;;;;;;;;;;;;;;;;;;5055195;28;20391;-71
2022/03/30 10:07:13;;;;;;;;;;;;;;;;;;5053724;28;19952;-71
2022/03/30 10:09:40;;;;;;;;;;;;;;;;;;5055484;28;20430;-71
2022/03/30 10:12:07;;;;;;;;;;;;;;;;;;5053676;28;19920;-71
2022/03/30 10:14:34;;;;;;;;;;;;;;;;;;5055328;28;19913;-71
2022/03/30 10:17:00;;;;;;;;;;;;;;;;;;5054907;28;20044;-72
2022/03/30 10:19:28;;;;;;;;;;;;;;;;;;5053553;28;20061;-72
2022/03/30 10:21:54;;;;;;;;;;;;;;;;;;5053675;28;20353;-71
2022/03/30 10:24:20;;;;;;;;;;;;;;;;;;5054980;28;19913;-71
2022/03/30 10:26:46;;;;;;;;;;;;;;;;;;5054923;28;19913;-72
2022/03/30 10:29:12;;;;;;;;;;;;;;;;;;5054579;28;19921;-72
2022/03/30 10:31:38;;;;;;;;;;;;;;;;;;5054405;28;19920;-72
2022/03/30 10:34:04;;;;;;;;;;;;;;;;;;5054743;28;19912;-71
2022/03/30 10:36:30;;;;;;;;;;;;;;;;;;5054558;28;19936;-71
2022/03/30 10:38:56;;;;;;;;;;;;;;;;;;5054810;28;19919;-71
2022/03/30 10:41:22;;;;;;;;;;;;;;;;;;5054476;28;19912;-72
2022/03/30 10:43:48;;;;;;;;;;;;;;;;;;5054569;28;19932;-72
2022/03/30 10:46:14;;;;;;;;;;;;;;;;;;5052999;28;20393;-72
2022/03/30 10:48:40;;;;;;;;;;;;;;;;;;5054380;28;19968;-71
2022/03/30 10:51:06;;;;;;;;;;;;;;;;;;5054141;28;19924;-72
2022/03/30 10:53:32;;;;;;;;;;;;;;;;;;5052897;28;19913;-72
2022/03/30 10:55:58;;;;;;;;;;;;;;;;;;5054120;28;20387;-72
2022/03/30 10:58:25;;;;;;;;;;;;;;;;;;5052600;28;20353;-72
2022/03/30 11:00:51;;;;;;;;;;;;;;;;;;5053966;28;20008;-71
2022/03/30 11:03:20;;;;;;;;;;;;;;;;;;5054028;28;20004;-71
2022/03/30 11:05:46;;;;;;;;;;;;;;;;;;5053586;28;20098;-71
2022/03/30 11:08:13;;;;;;;;;;;;;;;;;;5053909;28;19994;-71
2022/03/30 11:10:39;;;;;;;;;;;;;;;;;;5053815;28;19924;-71
2022/03/30 11:13:05;;;;;;;;;;;;;;;;;;5052658;28;19921;-71
2022/03/30 11:15:31;;;;;;;;;;;;;;;;;;5053700;28;20321;-71
2022/03/30 11:18:00;;;;;;;;;;;;;;;;;;5053794;28;19915;-71
2022/03/30 11:20:26;;;;;;;;;;;;;;;;;;5052420;28;20315;-71
2022/03/30 11:22:52;;;;;;;;;;;;;;;;;;5052297;28;19909;-72
2022/03/30 11:25:19;;;;;;;;;;;;;;;;;;5052588;28;20307;-72
2022/03/30 11:27:45;;;;;;;;;;;;;;;;;;5051970;28;20003;-72
2022/03/30 11:30:12;;;;;;;;;;;;;;;;;;5053410;28;19913;-72
2022/03/30 11:32:38;;;;;;;;;;;;;;;;;;5052084;28;20391;-71
2022/03/30 11:35:04;;;;;;;;;;;;;;;;;;5053837;28;19924;-70
2022/03/30 11:37:30;;;;;;;;;;;;;;;;;;5053234;28;19917;-71
2022/03/30 11:39:56;;;;;;;;;;;;;;;;;;5053830;28;19920;-70
2022/03/30 11:42:22;;;;;;;;;;;;;;;;;;5051812;28;19919;-71
2022/03/30 11:47:34;;;;;;;;;;;;;;;;;;5053133;28;19939;-72
2022/03/30 11:50:00;;;;;;;;;;;;;;;;;;5051989;28;20352;-72
2022/03/30 11:52:26;;;;;;;;;;;;;;;;;;5052970;28;19938;-72
2022/03/30 11:54:52;;;;;;;;;;;;;;;;;;5053563;28;20277;-72
2022/03/30 11:57:18;;;;;;;;;;;;;;;;;;5053084;28;20001;-72
2022/03/30 11:59:44;;;;;;;;;;;;;;;;;;5053563;28;19913;-72
2022/03/30 12:02:10;;;;;;;;;;;;;;;;;;5053030;28;19939;-72
2022/03/30 12:04:38;;;;;;;;;;;;;;;;;;5051613;28;19913;-71
2022/03/30 12:07:05;;;;;;;;;;;;;;;;;;5052435;28;20031;-70
2022/03/30 12:09:32;;;;;;;;;;;;;;;;;;5052710;28;19917;-72
2022/03/30 12:11:58;;;;;;;;;;;;;;;;;;5052732;28;19923;-70
2022/03/30 12:14:24;;;;;;;;;;;;;;;;;;5052988;28;20432;-72
2022/03/30 12:16:50;;;;;;;;;;;;;;;;;;5051107;28;19967;-71
2022/03/30 12:19:16;;;;;;;;;;;;;;;;;;5052907;28;20307;-72
2022/03/30 12:21:42;;;;;;;;;;;;;;;;;;5052067;28;19917;-72
2022/03/30 12:24:10;;;;;;;;;;;;;;;;;;5052751;28;19935;-70
2022/03/30 12:26:36;;;;;;;;;;;;;;;;;;5052512;28;19913;-71
2022/03/30 12:29:02;;;;;;;;;;;;;;;;;;5052619;28;20388;-71
2022/03/30 12:31:28;;;;;;;;;;;;;;;;;;5050959;28;20046;-70
2022/03/30 12:33:54;;;;;;;;;;;;;;;;;;5052304;28;19983;-72
2022/03/30 12:36:20;;;;;;;;;;;;;;;;;;5052055;28;19913;-71
2022/03/30 12:38:46;;;;;;;;;;;;;;;;;;5052355;28;19919;-71
2022/03/30 12:41:12;;;;;;;;;;;;;;;;;;5052340;28;19913;-70
2022/03/30 12:43:42;;;;;;;;;;;;;;;;;;5052247;28;20002;-70
2022/03/30 12:46:08;;;;;;;;;;;;;;;;;;5052009;28;19920;-70
2022/03/30 12:48:34;;;;;;;;;;;;;;;;;;5052201;28;19912;-71
2022/03/30 12:51:00;;;;;;;;;;;;;;;;;;5052318;28;19917;-71
2022/03/30 12:53:26;;;;;;;;;;;;;;;;;;5051905;28;19916;-72
2022/03/30 12:55:53;;;;;;;;;;;;;;;;;;5050596;28;19940;-73
2022/03/30 12:58:20;;;;;;;;;;;;;;;;;;5052033;28;20377;-71
2022/03/30 13:00:46;;;;;;;;;;;;;;;;;;5051884;28;20288;-71
2022/03/30 13:03:12;;;;;;;;;;;;;;;;;;5051730;28;20008;-72
2022/03/30 13:05:40;;;;;;;;;;;;;;;;;;5051566;28;20360;-73
2022/03/30 13:08:06;;;;;;;;;;;;;;;;;;5051766;28;19913;-70
2022/03/30 13:10:32;;;;;;;;;;;;;;;;;;5052001;28;20284;-71
2022/03/30 13:12:59;;;;;;;;;;;;;;;;;;5051612;28;20378;-72
2022/03/30 13:15:25;;;;;;;;;;;;;;;;;;5051710;28;20020;-72
2022/03/30 13:17:51;;;;;;;;;;;;;;;;;;5050276;28;19909;-71
2022/03/30 13:20:17;;;;;;;;;;;;;;;;;;5051955;28;20329;-72
2022/03/30 13:22:43;;;;;;;;;;;;;;;;;;5051599;28;19951;-72
2022/03/30 13:25:09;;;;;;;;;;;;;;;;;;5051955;28;20186;-71
2022/03/30 13:27:35;;;;;;;;;;;;;;;;;;5051570;28;19917;-71
2022/03/30 13:30:01;;;;;;;;;;;;;;;;;;5051907;28;20027;-72
2022/03/30 13:32:29;;;;;;;;;;;;;;;;;;5051185;28;20242;-72
2022/03/30 13:34:54;;;;;;;;;;;;;;;;;;5049158;28;19913;-72
2022/03/30 13:37:21;;;;;;;;;;;;;;;;;;5049943;28;20364;-72
2022/03/30 13:39:47;;;;;;;;;;;;;;;;;;5050313;28;19913;-72
2022/03/30 13:42:13;;;;;;;;;;;;;;;;;;5050023;28;20387;-71
2022/03/30 13:44:39;;;;;;;;;;;;;;;;;;5051681;28;19916;-71
2022/03/30 13:47:05;;;;;;;;;;;;;;;;;;5050090;28;19921;-71
2022/03/30 13:49:44;;;;;;;;;;;;;;;;;;5051708;28;19959;-72
2022/03/30 13:52:13;;;;;;;;;;;;;;;;;;5049814;28;19921;-71
2022/03/30 13:54:39;;;;;;;;;;;;;;;;;;5051442;28;19913;-71
2022/03/30 13:57:05;;;;;;;;;;;;;;;;;;5051281;28;20400;-71
2022/03/30 13:59:31;;;;;;;;;;;;;;;;;;5051659;28;19955;-71
2022/03/30 14:01:57;;;;;;;;;;;;;;;;;;5050017;28;19920;-73
2022/03/30 14:04:23;;;;;;;;;;;;;;;;;;5051410;28;19912;-71
2022/03/30 14:06:49;;;;;;;;;;;;;;;;;;5050945;28;19983;-71
2022/03/30 14:09:15;;;;;;;;;;;;;;;;;;5051293;28;20294;-72
2022/03/30 14:11:42;;;;;;;;;;;;;;;;;;5051109;28;20305;-71
2022/03/30 14:14:08;;;;;;;;;;;;;;;;;;5051078;28;19913;-72
2022/03/30 14:16:34;;;;;;;;;;;;;;;;;;5051014;28;20391;-72
2022/03/30 14:19:00;;;;;;;;;;;;;;;;;;5050934;28;20007;-71
2022/03/30 14:21:26;;;;;;;;;;;;;;;;;;5051266;28;20460;-70
2022/03/30 14:23:54;;;;;;;;;;;;;;;;;;5051130;28;20353;-70
2022/03/30 14:26:20;;;;;;;;;;;;;;;;;;5049359;28;20335;-71
2022/03/30 14:28:46;;;;;;;;;;;;;;;;;;5050972;28;19912;-71
2022/03/30 14:31:12;;;;;;;;;;;;;;;;;;5051012;28;19927;-72
2022/03/30 14:33:38;;;;;;;;;;;;;;;;;;5049152;28;19913;-72
2022/03/30 14:36:06;;;;;;;;;;;;;;;;;;5050772;28;19923;-72
2022/03/30 14:38:32;;;;;;;;;;;;;;;;;;5050815;28;19913;-71
2022/03/30 14:40:58;;;;;;;;;;;;;;;;;;5050651;28;19914;-71
2022/03/30 14:43:24;;;;;;;;;;;;;;;;;;5050511;28;19912;-71
2022/03/30 14:45:50;;;;;;;;;;;;;;;;;;5050901;28;20302;-70
2022/03/30 14:48:18;;;;;;;;;;;;;;;;;;5054311;28;19913;-72
2022/03/30 14:50:44;;;;;;;;;;;;;;;;;;5054185;28;19917;-71
2022/03/30 14:53:10;;;;;;;;;;;;;;;;;;5052749;28;19993;-72
2022/03/30 14:55:36;;;;;;;;;;;;;;;;;;5052782;28;19913;-72
2022/03/30 14:58:03;;;;;;;;;;;;;;;;;;5052716;28;19909;-71
2022/03/30 15:00:30;;;;;;;;;;;;;;;;;;5052730;28;20002;-71
2022/03/30 15:02:57;;;;;;;;;;;;;;;;;;5053966;28;19913;-71
2022/03/30 15:05:23;;;;;;;;;;;;;;;;;;5052384;28;20455;-71
2022/03/30 15:07:49;;;;;;;;;;;;;;;;;;5053883;28;19916;-70
2022/03/30 15:10:15;;;;;;;;;;;;;;;;;;5052474;28;20288;-72
2022/03/30 15:12:41;;;;;;;;;;;;;;;;;;5053781;28;19924;-73
2022/03/30 15:15:09;;;;;;;;;;;;;;;;;;5054213;28;19913;-71
2022/03/30 15:17:38;;;;;;;;;;;;;;;;;;5053708;28;20357;-71
2022/03/30 15:20:05;;;;;;;;;;;;;;;;;;5054026;28;20203;-70
2022/03/30 15:22:31;;;;;;;;;;;;;;;;;;5053691;28;19948;-72
2022/03/30 15:24:57;;;;;;;;;;;;;;;;;;5053988;28;19948;-70
2022/03/30 15:27:23;;;;;;;;;;;;;;;;;;5053497;28;20015;-72
2022/03/30 15:29:50;;;;;;;;;;;;;;;;;;5052182;28;20004;-71
2022/03/30 15:32:16;;;;;;;;;;;;;;;;;;5053494;28;19921;-71
2022/03/30 15:34:45;;;;;;;;;;;;;;;;;;5053706;28;20364;-71
2022/03/30 15:37:11;;;;;;;;;;;;;;;;;;5053209;28;20308;-71
2022/03/30 15:39:39;;;;;;;;;;;;;;;;;;5053572;28;19913;-70
2022/03/30 15:42:04;;;;;;;;;;;;;;;;;;5053324;28;19944;-71
2022/03/30 15:44:31;;;;;;;;;;;;;;;;;;5053773;28;20025;-71
2022/03/30 15:46:57;;;;;;;;;;;;;;;;;;5053573;28;19916;-71
2022/03/30 15:49:23;;;;;;;;;;;;;;;;;;5053593;28;20265;-72
2022/03/30 15:51:49;;;;;;;;;;;;;;;;;;5053253;28;19924;-72
2022/03/30 15:54:15;;;;;;;;;;;;;;;;;;5053383;28;20431;-72
2022/03/30 15:56:41;;;;;;;;;;;;;;;;;;5052413;28;19913;-71
2022/03/30 15:59:08;;;;;;;;;;;;;;;;;;5051752;28;20288;-71
2022/03/30 16:01:35;;;;;;;;;;;;;;;;;;5053268;28;19917;-71
2022/03/30 16:04:01;;;;;;;;;;;;;;;;;;5053245;28;20357;-70
2022/03/30 16:06:27;;;;;;;;;;;;;;;;;;5052914;28;19975;-70
2022/03/30 16:09:05;;;;;;;;;;;;;;;;;;5051576;28;19916;-71
2022/03/30 16:14:16;;;;;;;;;;;;;;;;;;5053103;28;19947;-71
2022/03/30 16:16:46;;;;;;;;;;;;;;;;;;5051387;28;19920;-71
2022/03/30 16:19:12;;;;;;;;;;;;;;;;;;5052991;28;19952;-70
2022/03/30 16:21:40;;;;;;;;;;;;;;;;;;5052329;28;19913;-72
2022/03/30 16:24:12;;;;;;;;;;;;;;;;;;5052838;28;20312;-72
2022/03/30 16:26:38;;;;;;;;;;;;;;;;;;5052389;28;20258;-71
2022/03/30 16:29:04;;;;;;;;;;;;;;;;;;5052682;28;19924;-70
2022/03/30 16:31:35;;;;;;;;;;;;;;;;;;5052352;28;19956;-71
2022/03/30 16:34:01;;;;;;;;;;;;;;;;;;5052650;28;19913;-72
2022/03/30 16:36:28;;;;;;;;;;;;;;;;;;5052264;28;20284;-71
2022/03/30 16:38:54;;;;;;;;;;;;;;;;;;5052623;28;19935;-71
2022/03/30 16:41:20;;;;;;;;;;;;;;;;;;5052461;28;20004;-71
2022/03/30 16:43:47;;;;;;;;;;;;;;;;;;5052624;28;19920;-71
2022/03/30 16:46:13;;;;;;;;;;;;;;;;;;5050943;28;20436;-72
2022/03/30 16:48:39;;;;;;;;;;;;;;;;;;5050981;28;19975;-72
2022/03/30 16:51:05;;;;;;;;;;;;;;;;;;5050777;28;19925;-72